Time;durP1;ratioP1;P1;durP2;ratioP2;P2;SDS_P1;SDS_P2;PMS_P1;PMS_P2;Temp;Humidity;BMP_temperature;BMP_pressure;BME280_temperature;BME280_humidity;BME280_pressure;Samples;Min_cycle;Max_cycle;Signal;HPM_P1;HPM_P2
2024/03/21 00:01:07;;;;;;;;;;;;;;;;;;5114227;28;20011;-71
2024/03/21 00:03:34;;;;;;;;;;;;;;;;;;5114630;28;20343;-71
2024/03/21 00:06:00;;;;;;;;;;;;;;;;;;5114585;28;20279;-71
2024/03/21 00:08:26;;;;;;;;;;;;;;;;;;5114103;28;19916;-71
2024/03/21 00:10:52;;;;;;;;;;;;;;;;;;5114487;28;19908;-71
2024/03/21 00:13:18;;;;;;;;;;;;;;;;;;5114422;28;19912;-71
2024/03/21 00:15:44;;;;;;;;;;;;;;;;;;5114193;28;19914;-71
2024/03/21 00:18:10;;;;;;;;;;;;;;;;;;5113123;28;19908;-71
2024/03/21 00:20:36;;;;;;;;;;;;;;;;;;5114431;28;19908;-71
2024/03/21 00:23:02;;;;;;;;;;;;;;;;;;5114258;28;20394;-71
2024/03/21 00:25:28;;;;;;;;;;;;;;;;;;5113064;28;20347;-71
2024/03/21 00:27:54;;;;;;;;;;;;;;;;;;5114094;28;20417;-71
2024/03/21 00:30:20;;;;;;;;;;;;;;;;;;5112701;28;19908;-71
2024/03/21 00:32:46;;;;;;;;;;;;;;;;;;5114339;28;20002;-71
2024/03/21 00:35:12;;;;;;;;;;;;;;;;;;5114252;28;19908;-70
2024/03/21 00:37:38;;;;;;;;;;;;;;;;;;5113844;28;19908;-71
2024/03/21 00:40:04;;;;;;;;;;;;;;;;;;5112898;28;20398;-71
2024/03/21 00:42:30;;;;;;;;;;;;;;;;;;5114187;28;19908;-71
2024/03/21 00:44:56;;;;;;;;;;;;;;;;;;5113740;28;19908;-71
2024/03/21 00:47:22;;;;;;;;;;;;;;;;;;5114114;28;19918;-71
2024/03/21 00:49:48;;;;;;;;;;;;;;;;;;5114316;28;19908;-71
2024/03/21 00:52:14;;;;;;;;;;;;;;;;;;5116602;28;20383;-71
2024/03/21 00:54:41;;;;;;;;;;;;;;;;;;5118537;28;19908;-71
2024/03/21 00:57:07;;;;;;;;;;;;;;;;;;5117894;27;19951;-71
2024/03/21 00:59:33;;;;;;;;;;;;;;;;;;5118121;28;19953;-71
2024/03/21 01:01:59;;;;;;;;;;;;;;;;;;5118167;28;19912;-71
2024/03/21 01:04:25;;;;;;;;;;;;;;;;;;5117718;28;19998;-71
2024/03/21 01:06:51;;;;;;;;;;;;;;;;;;5117936;28;19956;-71
2024/03/21 01:09:19;;;;;;;;;;;;;;;;;;5117907;28;19920;-71
2024/03/21 01:11:45;;;;;;;;;;;;;;;;;;5117499;28;19998;-71
2024/03/21 01:14:11;;;;;;;;;;;;;;;;;;5118043;28;20375;-71
2024/03/21 01:16:37;;;;;;;;;;;;;;;;;;5117782;28;19908;-71
2024/03/21 01:19:03;;;;;;;;;;;;;;;;;;5117507;28;19908;-71
2024/03/21 01:21:29;;;;;;;;;;;;;;;;;;5118042;28;19953;-71
2024/03/21 01:23:55;;;;;;;;;;;;;;;;;;5117661;28;20360;-71
2024/03/21 01:26:21;;;;;;;;;;;;;;;;;;5117243;28;20291;-71
2024/03/21 01:28:47;;;;;;;;;;;;;;;;;;5117292;28;19926;-71
2024/03/21 01:31:20;;;;;;;;;;;;;;;;;;5117501;28;19908;-71
2024/03/21 01:33:46;;;;;;;;;;;;;;;;;;5117272;28;19934;-71
2024/03/21 01:36:12;;;;;;;;;;;;;;;;;;5117371;28;19908;-71
2024/03/21 01:38:38;;;;;;;;;;;;;;;;;;5117329;28;19914;-71
2024/03/21 01:41:04;;;;;;;;;;;;;;;;;;5116941;28;19907;-71
2024/03/21 01:43:30;;;;;;;;;;;;;;;;;;5115974;28;19915;-72
2024/03/21 01:45:56;;;;;;;;;;;;;;;;;;5117228;28;19908;-71
2024/03/21 01:48:22;;;;;;;;;;;;;;;;;;5115494;28;19958;-71
2024/03/21 01:50:48;;;;;;;;;;;;;;;;;;5117123;28;19915;-71
2024/03/21 01:53:14;;;;;;;;;;;;;;;;;;5116761;28;19908;-71
2024/03/21 01:55:40;;;;;;;;;;;;;;;;;;5117014;28;19907;-71
2024/03/21 01:58:06;;;;;;;;;;;;;;;;;;5117012;28;20278;-71
2024/03/21 02:00:32;;;;;;;;;;;;;;;;;;5116109;28;19934;-71
2024/03/21 02:02:57;;;;;;;;;;;;;;;;;;5116929;28;20317;-70
2024/03/21 02:05:23;;;;;;;;;;;;;;;;;;5115557;28;20268;-72
2024/03/21 02:07:49;;;;;;;;;;;;;;;;;;5116391;28;20337;-72
2024/03/21 02:10:15;;;;;;;;;;;;;;;;;;5115433;28;19907;-71
2024/03/21 02:12:43;;;;;;;;;;;;;;;;;;5115607;28;19912;-70
2024/03/21 02:15:09;;;;;;;;;;;;;;;;;;5116352;27;19954;-71
2024/03/21 02:17:35;;;;;;;;;;;;;;;;;;5116714;28;20002;-71
2024/03/21 02:20:03;;;;;;;;;;;;;;;;;;5115470;28;19956;-71
2024/03/21 02:22:35;;;;;;;;;;;;;;;;;;5114960;28;19915;-71
2024/03/21 02:25:01;;;;;;;;;;;;;;;;;;5115246;28;19919;-71
2024/03/21 02:27:27;;;;;;;;;;;;;;;;;;5116260;28;20306;-69
2024/03/21 02:29:53;;;;;;;;;;;;;;;;;;5114771;28;20008;-69
2024/03/21 02:32:19;;;;;;;;;;;;;;;;;;5115051;28;19912;-70
2024/03/21 02:34:45;;;;;;;;;;;;;;;;;;5114941;28;20019;-70
2024/03/21 02:37:11;;;;;;;;;;;;;;;;;;5115850;28;20007;-69
2024/03/21 02:39:37;;;;;;;;;;;;;;;;;;5116157;27;19947;-69
2024/03/21 02:42:03;;;;;;;;;;;;;;;;;;5116237;28;20314;-69
2024/03/21 02:44:29;;;;;;;;;;;;;;;;;;5115711;27;19907;-70
2024/03/21 02:46:55;;;;;;;;;;;;;;;;;;5116023;27;19959;-69
2024/03/21 02:49:21;;;;;;;;;;;;;;;;;;5114590;28;19923;-69
2024/03/21 02:51:47;;;;;;;;;;;;;;;;;;5115582;28;19915;-70
2024/03/21 02:54:13;;;;;;;;;;;;;;;;;;5115889;28;19908;-70
2024/03/21 02:56:39;;;;;;;;;;;;;;;;;;5115550;28;19939;-70
2024/03/21 02:59:05;;;;;;;;;;;;;;;;;;5115715;28;19914;-70
2024/03/21 03:01:31;;;;;;;;;;;;;;;;;;5114454;28;19911;-70
2024/03/21 03:03:57;;;;;;;;;;;;;;;;;;5115353;28;19908;-71
2024/03/21 03:06:22;;;;;;;;;;;;;;;;;;5115969;28;19950;-70
2024/03/21 03:08:48;;;;;;;;;;;;;;;;;;5114220;28;19916;-70
2024/03/21 03:11:14;;;;;;;;;;;;;;;;;;5115240;27;19914;-70
2024/03/21 03:13:40;;;;;;;;;;;;;;;;;;5115170;28;19953;-71
2024/03/21 03:16:06;;;;;;;;;;;;;;;;;;5114147;28;19907;-71
2024/03/21 03:18:32;;;;;;;;;;;;;;;;;;5115388;28;19977;-70
2024/03/21 03:20:58;;;;;;;;;;;;;;;;;;5114046;28;20363;-70
2024/03/21 03:23:24;;;;;;;;;;;;;;;;;;5115287;27;20271;-71
2024/03/21 03:25:50;;;;;;;;;;;;;;;;;;5114866;28;20287;-70
2024/03/21 03:28:16;;;;;;;;;;;;;;;;;;5114992;28;19920;-71
2024/03/21 03:30:42;;;;;;;;;;;;;;;;;;5115163;28;19908;-70
2024/03/21 03:35:52;;;;;;;;;;;;;;;;;;5115155;28;19953;-71
2024/03/21 03:38:18;;;;;;;;;;;;;;;;;;5115071;28;20302;-71
2024/03/21 03:40:45;;;;;;;;;;;;;;;;;;5114557;28;19908;-72
2024/03/21 03:43:11;;;;;;;;;;;;;;;;;;5114916;28;19912;-71
2024/03/21 03:45:37;;;;;;;;;;;;;;;;;;5115084;28;19915;-71
2024/03/21 03:48:03;;;;;;;;;;;;;;;;;;5114460;28;19912;-71
2024/03/21 03:50:29;;;;;;;;;;;;;;;;;;5114842;28;19908;-71
2024/03/21 03:52:54;;;;;;;;;;;;;;;;;;5114484;28;19995;-71
2024/03/21 03:55:20;;;;;;;;;;;;;;;;;;5114730;28;19915;-71
2024/03/21 03:57:46;;;;;;;;;;;;;;;;;;5114847;28;19994;-71
2024/03/21 04:00:12;;;;;;;;;;;;;;;;;;5114341;28;20275;-71
2024/03/21 04:02:39;;;;;;;;;;;;;;;;;;5114698;28;20344;-71
2024/03/21 04:05:05;;;;;;;;;;;;;;;;;;5114985;28;19973;-71
2024/03/21 04:07:31;;;;;;;;;;;;;;;;;;5114412;28;19915;-71
2024/03/21 04:09:57;;;;;;;;;;;;;;;;;;5114550;28;19916;-71
2024/03/21 04:12:23;;;;;;;;;;;;;;;;;;5114496;28;19908;-71
2024/03/21 04:14:52;;;;;;;;;;;;;;;;;;5114097;28;20352;-71
2024/03/21 04:17:17;;;;;;;;;;;;;;;;;;5114761;28;19911;-71
2024/03/21 04:19:43;;;;;;;;;;;;;;;;;;5114424;28;19915;-71
2024/03/21 04:22:09;;;;;;;;;;;;;;;;;;5114096;28;19914;-71
2024/03/21 04:24:40;;;;;;;;;;;;;;;;;;5114505;28;19915;-71
2024/03/21 04:27:06;;;;;;;;;;;;;;;;;;5114226;28;19915;-70
2024/03/21 04:29:32;;;;;;;;;;;;;;;;;;5113878;28;19916;-71
2024/03/21 04:31:58;;;;;;;;;;;;;;;;;;5113002;28;19945;-71
2024/03/21 04:34:24;;;;;;;;;;;;;;;;;;5114252;28;19961;-71
2024/03/21 04:36:50;;;;;;;;;;;;;;;;;;5113828;28;19908;-71
2024/03/21 04:39:16;;;;;;;;;;;;;;;;;;5112893;28;19943;-71
2024/03/21 04:41:42;;;;;;;;;;;;;;;;;;5114211;28;19930;-71
2024/03/21 04:44:08;;;;;;;;;;;;;;;;;;5113786;28;19961;-71
2024/03/21 04:46:34;;;;;;;;;;;;;;;;;;5114162;28;19916;-71
2024/03/21 04:49:00;;;;;;;;;;;;;;;;;;5114076;28;20017;-71
2024/03/21 04:51:26;;;;;;;;;;;;;;;;;;5113875;28;19908;-71
2024/03/21 04:53:52;;;;;;;;;;;;;;;;;;5112814;28;19914;-71
2024/03/21 04:56:18;;;;;;;;;;;;;;;;;;5112464;28;19926;-71
2024/03/21 04:58:44;;;;;;;;;;;;;;;;;;5114274;28;20002;-71
2024/03/21 05:01:10;;;;;;;;;;;;;;;;;;5113926;28;19943;-71
2024/03/21 05:03:36;;;;;;;;;;;;;;;;;;5113604;28;19915;-71
2024/03/21 05:06:02;;;;;;;;;;;;;;;;;;5112696;28;19961;-71
2024/03/21 05:08:28;;;;;;;;;;;;;;;;;;5113954;28;19911;-71
2024/03/21 05:10:54;;;;;;;;;;;;;;;;;;5112265;28;19912;-71
2024/03/21 05:13:20;;;;;;;;;;;;;;;;;;5113902;28;19953;-72
2024/03/21 05:15:45;;;;;;;;;;;;;;;;;;5114149;28;19908;-71
2024/03/21 05:18:11;;;;;;;;;;;;;;;;;;5113492;28;20320;-71
2024/03/21 05:20:38;;;;;;;;;;;;;;;;;;5113755;28;19908;-71
2024/03/21 05:23:04;;;;;;;;;;;;;;;;;;5105487;28;19961;-71
2024/03/21 05:25:29;;;;;;;;;;;;;;;;;;5092806;28;19908;-71
2024/03/21 05:27:55;;;;;;;;;;;;;;;;;;5092950;28;19927;-71
2024/03/21 05:30:21;;;;;;;;;;;;;;;;;;5093091;28;19912;-71
2024/03/21 05:32:47;;;;;;;;;;;;;;;;;;5074597;28;19995;-72
2024/03/21 05:35:13;;;;;;;;;;;;;;;;;;5093452;28;19991;-71
2024/03/21 05:37:39;;;;;;;;;;;;;;;;;;5078556;28;19977;-71
2024/03/21 05:40:05;;;;;;;;;;;;;;;;;;5096468;28;19908;-71
2024/03/21 05:42:31;;;;;;;;;;;;;;;;;;5078312;28;20393;-72
2024/03/21 05:44:57;;;;;;;;;;;;;;;;;;5096854;28;19908;-71
2024/03/21 05:47:23;;;;;;;;;;;;;;;;;;5096328;28;19915;-71
2024/03/21 05:49:49;;;;;;;;;;;;;;;;;;5096516;28;19916;-72
2024/03/21 05:52:15;;;;;;;;;;;;;;;;;;5078367;28;19908;-72
2024/03/21 05:54:41;;;;;;;;;;;;;;;;;;5095851;28;19923;-72
2024/03/21 05:57:07;;;;;;;;;;;;;;;;;;5096426;28;20057;-71
2024/03/21 05:59:33;;;;;;;;;;;;;;;;;;5095981;28;19908;-72
2024/03/21 06:01:59;;;;;;;;;;;;;;;;;;5096287;28;20002;-70
2024/03/21 06:04:25;;;;;;;;;;;;;;;;;;5096270;28;20284;-70
2024/03/21 06:06:51;;;;;;;;;;;;;;;;;;5096186;28;19918;-71
2024/03/21 06:09:21;;;;;;;;;;;;;;;;;;5096119;28;20392;-71
2024/03/21 06:11:47;;;;;;;;;;;;;;;;;;5077940;28;20391;-72
2024/03/21 06:14:13;;;;;;;;;;;;;;;;;;5095792;28;19908;-72
2024/03/21 06:16:39;;;;;;;;;;;;;;;;;;5095808;28;19973;-72
2024/03/21 06:19:05;;;;;;;;;;;;;;;;;;5095989;28;19909;-72
2024/03/21 06:21:31;;;;;;;;;;;;;;;;;;5095268;28;20360;-71
2024/03/21 06:23:57;;;;;;;;;;;;;;;;;;5079791;28;20383;-71
2024/03/21 06:26:23;;;;;;;;;;;;;;;;;;5072190;28;19917;-69
2024/03/21 06:28:49;;;;;;;;;;;;;;;;;;5082497;28;20261;-69
2024/03/21 06:31:15;;;;;;;;;;;;;;;;;;5095030;28;19947;-69
2024/03/21 06:33:41;;;;;;;;;;;;;;;;;;5094404;28;19916;-69
2024/03/21 06:36:07;;;;;;;;;;;;;;;;;;5102382;28;20252;-67
2024/03/21 06:38:33;;;;;;;;;;;;;;;;;;5104958;28;19912;-69
2024/03/21 06:41:00;;;;;;;;;;;;;;;;;;5097673;28;19938;-68
2024/03/21 06:43:26;;;;;;;;;;;;;;;;;;5103258;28;19957;-69
2024/03/21 06:45:52;;;;;;;;;;;;;;;;;;5110424;28;20372;-68
2024/03/21 06:48:18;;;;;;;;;;;;;;;;;;5098958;28;19924;-69
2024/03/21 06:50:44;;;;;;;;;;;;;;;;;;5100096;28;19920;-68
2024/03/21 06:53:10;;;;;;;;;;;;;;;;;;5100033;28;20253;-69
2024/03/21 06:55:37;;;;;;;;;;;;;;;;;;5106670;28;19932;-69
2024/03/21 06:58:03;;;;;;;;;;;;;;;;;;5106298;28;19930;-69
2024/03/21 07:00:29;;;;;;;;;;;;;;;;;;5097753;28;19912;-68
2024/03/21 07:02:55;;;;;;;;;;;;;;;;;;5089121;28;19914;-69
2024/03/21 07:05:23;;;;;;;;;;;;;;;;;;5091409;28;19912;-68
2024/03/21 07:07:49;;;;;;;;;;;;;;;;;;5093340;28;20361;-68
2024/03/21 07:10:15;;;;;;;;;;;;;;;;;;5091528;28;19941;-68
2024/03/21 07:12:42;;;;;;;;;;;;;;;;;;5092342;28;19912;-69
2024/03/21 07:15:08;;;;;;;;;;;;;;;;;;5073807;28;20319;-69
2024/03/21 07:17:34;;;;;;;;;;;;;;;;;;5075448;28;20364;-70
2024/03/21 07:20:00;;;;;;;;;;;;;;;;;;5113997;28;19915;-70
2024/03/21 07:22:26;;;;;;;;;;;;;;;;;;5111667;28;19907;-68
2024/03/21 07:24:51;;;;;;;;;;;;;;;;;;5083988;28;19920;-68
2024/03/21 07:27:18;;;;;;;;;;;;;;;;;;5072863;28;20510;-68
2024/03/21 07:29:46;;;;;;;;;;;;;;;;;;5073578;28;19977;-69
2024/03/21 07:32:12;;;;;;;;;;;;;;;;;;5090259;28;20391;-68
2024/03/21 07:34:38;;;;;;;;;;;;;;;;;;5080968;28;19917;-69
2024/03/21 07:37:04;;;;;;;;;;;;;;;;;;5071524;28;20372;-68
2024/03/21 07:39:30;;;;;;;;;;;;;;;;;;5071263;28;19908;-69
2024/03/21 07:41:58;;;;;;;;;;;;;;;;;;5072354;28;20010;-68
2024/03/21 07:44:24;;;;;;;;;;;;;;;;;;5081585;28;19908;-69
2024/03/21 07:46:50;;;;;;;;;;;;;;;;;;5088557;28;19908;-68
2024/03/21 07:49:16;;;;;;;;;;;;;;;;;;5091444;28;19916;-68
2024/03/21 07:51:44;;;;;;;;;;;;;;;;;;5085160;28;20003;-69
2024/03/21 07:54:10;;;;;;;;;;;;;;;;;;5091469;28;19908;-68
2024/03/21 07:56:37;;;;;;;;;;;;;;;;;;5087431;28;19912;-68
2024/03/21 07:59:02;;;;;;;;;;;;;;;;;;5066629;28;20311;-69
2024/03/21 08:01:28;;;;;;;;;;;;;;;;;;5068250;28;19961;-70
2024/03/21 08:03:54;;;;;;;;;;;;;;;;;;5068856;28;20352;-68
2024/03/21 08:06:20;;;;;;;;;;;;;;;;;;5068982;28;19932;-70
2024/03/21 08:08:47;;;;;;;;;;;;;;;;;;5070897;28;19963;-70
2024/03/21 08:11:13;;;;;;;;;;;;;;;;;;5071394;28;20375;-69
2024/03/21 08:13:40;;;;;;;;;;;;;;;;;;5072019;28;19908;-68
2024/03/21 08:16:06;;;;;;;;;;;;;;;;;;5071726;28;19935;-69
2024/03/21 08:18:33;;;;;;;;;;;;;;;;;;5091191;28;19908;-71
2024/03/21 08:20:59;;;;;;;;;;;;;;;;;;5107827;28;20014;-70
2024/03/21 08:23:25;;;;;;;;;;;;;;;;;;5106757;28;19998;-71
2024/03/21 08:25:51;;;;;;;;;;;;;;;;;;5108529;28;19912;-72
2024/03/21 08:28:16;;;;;;;;;;;;;;;;;;5106578;28;19920;-70
2024/03/21 08:30:46;;;;;;;;;;;;;;;;;;5107848;28;19946;-69
2024/03/21 08:33:14;;;;;;;;;;;;;;;;;;5108663;28;19908;-70
2024/03/21 08:35:40;;;;;;;;;;;;;;;;;;5110914;28;19915;-69
2024/03/21 08:38:06;;;;;;;;;;;;;;;;;;5113301;28;19912;-69
2024/03/21 08:40:32;;;;;;;;;;;;;;;;;;5112829;28;20395;-67
2024/03/21 08:42:59;;;;;;;;;;;;;;;;;;5111270;28;20378;-69
2024/03/21 08:45:25;;;;;;;;;;;;;;;;;;5112453;28;20251;-70
2024/03/21 08:47:51;;;;;;;;;;;;;;;;;;5110563;28;20498;-68
2024/03/21 08:50:17;;;;;;;;;;;;;;;;;;5112809;28;19939;-70
2024/03/21 08:52:43;;;;;;;;;;;;;;;;;;5112626;28;19954;-68
2024/03/21 08:55:09;;;;;;;;;;;;;;;;;;5110592;28;19907;-68
2024/03/21 08:57:35;;;;;;;;;;;;;;;;;;5111793;28;19914;-68
2024/03/21 09:00:01;;;;;;;;;;;;;;;;;;5113150;28;20379;-69
2024/03/21 09:02:27;;;;;;;;;;;;;;;;;;5112952;28;19908;-68
2024/03/21 09:04:53;;;;;;;;;;;;;;;;;;5112419;28;19908;-68
2024/03/21 09:07:19;;;;;;;;;;;;;;;;;;5112292;28;20002;-67
2024/03/21 09:09:45;;;;;;;;;;;;;;;;;;5089627;28;19978;-67
2024/03/21 09:12:11;;;;;;;;;;;;;;;;;;5085571;28;19920;-67
2024/03/21 09:14:37;;;;;;;;;;;;;;;;;;5074202;28;19912;-67
2024/03/21 09:17:03;;;;;;;;;;;;;;;;;;5087513;28;19947;-67
2024/03/21 09:19:29;;;;;;;;;;;;;;;;;;5111508;28;20312;-67
2024/03/21 09:21:56;;;;;;;;;;;;;;;;;;5093420;28;19952;-70
2024/03/21 09:24:22;;;;;;;;;;;;;;;;;;5094701;28;20314;-68
2024/03/21 09:26:48;;;;;;;;;;;;;;;;;;5085867;28;19999;-68
2024/03/21 09:29:14;;;;;;;;;;;;;;;;;;5075837;28;19920;-67
2024/03/21 09:31:40;;;;;;;;;;;;;;;;;;5074506;28;20303;-68
2024/03/21 09:34:06;;;;;;;;;;;;;;;;;;5094008;28;19908;-67
2024/03/21 09:36:32;;;;;;;;;;;;;;;;;;5095501;28;19908;-67
2024/03/21 09:38:58;;;;;;;;;;;;;;;;;;5091063;28;20003;-68
2024/03/21 09:41:24;;;;;;;;;;;;;;;;;;5073726;28;20340;-68
2024/03/21 09:45:06;;;;;;;;;;;;;;;;;;5088884;27;19913;-68
2024/03/21 09:47:33;;;;;;;;;;;;;;;;;;5090268;28;19920;-69
2024/03/21 09:49:59;;;;;;;;;;;;;;;;;;5085695;28;19913;-67
2024/03/21 09:52:25;;;;;;;;;;;;;;;;;;5076955;28;19923;-68
2024/03/21 09:54:51;;;;;;;;;;;;;;;;;;5068619;28;19909;-68
2024/03/21 09:59:43;;;;;;;;;;;;;;;;;;5088363;27;19919;-67
2024/03/21 10:02:12;;;;;;;;;;;;;;;;;;5088074;28;20011;-68
2024/03/21 10:04:38;;;;;;;;;;;;;;;;;;5087392;28;19931;-67
2024/03/21 10:07:04;;;;;;;;;;;;;;;;;;5087277;28;20391;-67
2024/03/21 10:09:30;;;;;;;;;;;;;;;;;;5084084;28;20340;-67
2024/03/21 10:11:58;;;;;;;;;;;;;;;;;;5085524;28;19915;-67
2024/03/21 10:14:24;;;;;;;;;;;;;;;;;;5083038;28;19913;-68
2024/03/21 10:16:50;;;;;;;;;;;;;;;;;;5080719;28;19912;-68
2024/03/21 10:19:16;;;;;;;;;;;;;;;;;;5083768;28;19921;-69
2024/03/21 10:22:18;;;;;;;;;;;;;;;;;;5101869;27;19912;-68
2024/03/21 10:24:44;;;;;;;;;;;;;;;;;;5100512;28;20372;-68
2024/03/21 10:27:10;;;;;;;;;;;;;;;;;;5102507;28;19912;-68
2024/03/21 10:29:36;;;;;;;;;;;;;;;;;;5108025;28;19919;-67
2024/03/21 10:32:02;;;;;;;;;;;;;;;;;;5100624;28;19931;-67
2024/03/21 10:36:05;;;;;;;;;;;;;;;;;;5148143;27;19911;-68
2024/03/21 10:38:31;;;;;;;;;;;;;;;;;;5088279;28;20026;-68
2024/03/21 10:40:57;;;;;;;;;;;;;;;;;;5107829;28;20063;-68
2024/03/21 10:43:23;;;;;;;;;;;;;;;;;;5109813;28;20326;-69
2024/03/21 10:46:30;;;;;;;;;;;;;;;;;;5108398;27;19919;-69
2024/03/21 10:48:56;;;;;;;;;;;;;;;;;;5109221;28;19912;-69
2024/03/21 10:51:22;;;;;;;;;;;;;;;;;;5110017;28;19915;-68
2024/03/21 10:53:48;;;;;;;;;;;;;;;;;;5110121;28;19916;-69
2024/03/21 10:56:14;;;;;;;;;;;;;;;;;;5106887;28;19908;-68
2024/03/21 10:58:40;;;;;;;;;;;;;;;;;;5106100;28;19908;-68
2024/03/21 11:01:06;;;;;;;;;;;;;;;;;;5102443;28;19915;-67
2024/03/21 11:03:33;;;;;;;;;;;;;;;;;;5119031;28;20716;-68
2024/03/21 11:05:59;;;;;;;;;;;;;;;;;;5092179;28;20330;-69
2024/03/21 11:08:25;;;;;;;;;;;;;;;;;;5107239;28;19908;-68
2024/03/21 11:10:51;;;;;;;;;;;;;;;;;;5105732;28;20376;-69
2024/03/21 11:13:16;;;;;;;;;;;;;;;;;;5106049;28;19908;-69
2024/03/21 11:15:42;;;;;;;;;;;;;;;;;;5106650;28;20027;-69
2024/03/21 11:18:08;;;;;;;;;;;;;;;;;;5106981;28;19930;-69
2024/03/21 11:20:34;;;;;;;;;;;;;;;;;;5106810;28;19908;-69
2024/03/21 11:23:00;;;;;;;;;;;;;;;;;;5107071;28;19955;-69
2024/03/21 11:25:26;;;;;;;;;;;;;;;;;;5106368;28;19927;-68
2024/03/21 11:27:53;;;;;;;;;;;;;;;;;;5103544;28;19908;-69
2024/03/21 11:30:19;;;;;;;;;;;;;;;;;;5104633;28;20654;-69
2024/03/21 11:32:45;;;;;;;;;;;;;;;;;;5106670;28;19919;-67
2024/03/21 11:35:11;;;;;;;;;;;;;;;;;;5106135;28;19912;-69
2024/03/21 11:37:37;;;;;;;;;;;;;;;;;;5106385;28;19981;-68
2024/03/21 11:40:03;;;;;;;;;;;;;;;;;;5108245;28;20388;-69
2024/03/21 11:42:29;;;;;;;;;;;;;;;;;;5104364;28;20002;-70
2024/03/21 11:44:54;;;;;;;;;;;;;;;;;;5102532;28;20016;-71
2024/03/21 11:47:20;;;;;;;;;;;;;;;;;;5107300;28;19995;-69
2024/03/21 11:49:46;;;;;;;;;;;;;;;;;;5106244;28;19980;-71
2024/03/21 11:52:13;;;;;;;;;;;;;;;;;;5109308;28;19965;-71
2024/03/21 11:54:39;;;;;;;;;;;;;;;;;;5106917;28;19908;-69
2024/03/21 11:57:05;;;;;;;;;;;;;;;;;;5097784;28;19908;-69
2024/03/21 11:59:31;;;;;;;;;;;;;;;;;;5093642;28;19922;-68
2024/03/21 12:01:57;;;;;;;;;;;;;;;;;;5094336;28;20376;-69
2024/03/21 12:04:22;;;;;;;;;;;;;;;;;;5093061;28;19966;-69
2024/03/21 12:06:48;;;;;;;;;;;;;;;;;;5079032;28;19921;-68
2024/03/21 12:09:14;;;;;;;;;;;;;;;;;;5073752;28;19965;-69
2024/03/21 12:11:52;;;;;;;;;;;;;;;;;;5108009;27;20308;-67
2024/03/21 12:14:18;;;;;;;;;;;;;;;;;;5107150;28;19912;-67
2024/03/21 12:16:44;;;;;;;;;;;;;;;;;;5107952;28;19912;-68
2024/03/21 12:19:11;;;;;;;;;;;;;;;;;;5108554;28;20006;-71
2024/03/21 12:21:39;;;;;;;;;;;;;;;;;;5110360;28;20002;-69
2024/03/21 12:24:05;;;;;;;;;;;;;;;;;;5109051;28;20355;-70
2024/03/21 12:26:31;;;;;;;;;;;;;;;;;;5110159;28;20237;-68
2024/03/21 12:29:00;;;;;;;;;;;;;;;;;;5109313;28;19953;-69
2024/03/21 12:31:29;;;;;;;;;;;;;;;;;;5110210;28;19924;-70
2024/03/21 12:33:56;;;;;;;;;;;;;;;;;;5110086;28;19915;-70
2024/03/21 12:36:22;;;;;;;;;;;;;;;;;;5109260;28;19954;-70
2024/03/21 12:38:48;;;;;;;;;;;;;;;;;;5108181;28;19955;-70
2024/03/21 12:41:14;;;;;;;;;;;;;;;;;;5109445;28;19915;-68
2024/03/21 12:43:40;;;;;;;;;;;;;;;;;;5108685;28;19908;-68
2024/03/21 12:46:06;;;;;;;;;;;;;;;;;;5109241;28;20001;-68
2024/03/21 12:48:34;;;;;;;;;;;;;;;;;;5109756;28;19908;-67
2024/03/21 12:51:00;;;;;;;;;;;;;;;;;;5109563;28;19920;-67
2024/03/21 12:53:26;;;;;;;;;;;;;;;;;;5107457;28;19912;-67
2024/03/21 12:55:52;;;;;;;;;;;;;;;;;;5106806;28;19916;-68
2024/03/21 12:58:18;;;;;;;;;;;;;;;;;;5108055;28;19968;-68
2024/03/21 13:00:44;;;;;;;;;;;;;;;;;;5106016;28;19915;-68
2024/03/21 13:03:10;;;;;;;;;;;;;;;;;;5106761;28;19911;-68
2024/03/21 13:05:36;;;;;;;;;;;;;;;;;;5106507;28;20411;-68
2024/03/21 13:08:01;;;;;;;;;;;;;;;;;;5109216;28;19908;-68
2024/03/21 13:10:27;;;;;;;;;;;;;;;;;;5109115;28;19967;-68
2024/03/21 13:12:54;;;;;;;;;;;;;;;;;;5101666;28;19913;-66
2024/03/21 13:15:20;;;;;;;;;;;;;;;;;;5108998;28;19922;-67
2024/03/21 13:17:46;;;;;;;;;;;;;;;;;;5105057;28;19908;-67
2024/03/21 13:20:14;;;;;;;;;;;;;;;;;;5108130;28;19908;-67
2024/03/21 13:22:46;;;;;;;;;;;;;;;;;;5088074;28;19959;-68
2024/03/21 13:25:16;;;;;;;;;;;;;;;;;;5076094;28;19908;-68
2024/03/21 13:27:42;;;;;;;;;;;;;;;;;;5074901;28;19916;-68
2024/03/21 13:30:09;;;;;;;;;;;;;;;;;;5074556;28;19920;-67
2024/03/21 13:32:35;;;;;;;;;;;;;;;;;;5075474;28;20268;-68
2024/03/21 13:35:01;;;;;;;;;;;;;;;;;;5074358;28;19909;-68
2024/03/21 13:37:27;;;;;;;;;;;;;;;;;;5079431;28;20003;-68
2024/03/21 13:39:54;;;;;;;;;;;;;;;;;;5095006;28;19908;-67
2024/03/21 13:42:20;;;;;;;;;;;;;;;;;;5095768;28;19919;-68
2024/03/21 13:44:46;;;;;;;;;;;;;;;;;;5095440;28;19912;-69
2024/03/21 13:47:17;;;;;;;;;;;;;;;;;;5095576;28;20404;-68
2024/03/21 13:49:45;;;;;;;;;;;;;;;;;;5095876;28;20376;-68
2024/03/21 13:52:12;;;;;;;;;;;;;;;;;;5092075;28;19923;-67
2024/03/21 13:54:38;;;;;;;;;;;;;;;;;;5094628;28;19913;-66
2024/03/21 13:57:05;;;;;;;;;;;;;;;;;;5083306;28;19998;-69
2024/03/21 13:59:33;;;;;;;;;;;;;;;;;;5106227;28;19909;-70
2024/03/21 14:02:03;;;;;;;;;;;;;;;;;;5095971;28;19997;-70
2024/03/21 14:04:29;;;;;;;;;;;;;;;;;;5095542;28;19909;-70
2024/03/21 14:06:54;;;;;;;;;;;;;;;;;;5095077;28;19915;-71
2024/03/21 14:09:23;;;;;;;;;;;;;;;;;;5095534;28;19961;-70
2024/03/21 14:11:49;;;;;;;;;;;;;;;;;;5094790;28;19964;-70
2024/03/21 14:14:17;;;;;;;;;;;;;;;;;;5095188;28;19932;-70
2024/03/21 14:16:47;;;;;;;;;;;;;;;;;;5093926;28;19912;-70
2024/03/21 14:19:14;;;;;;;;;;;;;;;;;;5074703;28;19908;-70
2024/03/21 14:21:41;;;;;;;;;;;;;;;;;;5080538;28;19981;-69
2024/03/21 14:24:33;;;;;;;;;;;;;;;;;;5094380;28;19908;-69
2024/03/21 14:27:00;;;;;;;;;;;;;;;;;;5094872;28;20016;-70
2024/03/21 14:29:26;;;;;;;;;;;;;;;;;;5094850;28;19908;-70
2024/03/21 14:31:52;;;;;;;;;;;;;;;;;;5094816;28;20376;-70
2024/03/21 14:34:18;;;;;;;;;;;;;;;;;;5093679;28;19908;-70
2024/03/21 14:36:46;;;;;;;;;;;;;;;;;;5093387;28;20007;-70
2024/03/21 14:39:13;;;;;;;;;;;;;;;;;;5094777;28;20376;-69
2024/03/21 14:41:44;;;;;;;;;;;;;;;;;;5096225;28;20269;-71
2024/03/21 14:44:10;;;;;;;;;;;;;;;;;;5094557;28;19935;-71
2024/03/21 14:46:36;;;;;;;;;;;;;;;;;;5094468;28;19915;-71
2024/03/21 14:49:04;;;;;;;;;;;;;;;;;;5094362;28;20361;-70
2024/03/21 14:51:31;;;;;;;;;;;;;;;;;;5094245;28;20379;-70
2024/03/21 14:53:56;;;;;;;;;;;;;;;;;;5094296;28;20021;-70
2024/03/21 14:56:22;;;;;;;;;;;;;;;;;;5094249;28;19947;-70
2024/03/21 14:58:49;;;;;;;;;;;;;;;;;;5094343;28;19912;-71
2024/03/21 15:01:17;;;;;;;;;;;;;;;;;;5094087;28;20430;-71
2024/03/21 15:03:50;;;;;;;;;;;;;;;;;;5076889;28;20003;-70
2024/03/21 15:06:17;;;;;;;;;;;;;;;;;;5075526;28;19912;-70
2024/03/21 15:08:44;;;;;;;;;;;;;;;;;;5073838;28;20003;-70
2024/03/21 15:11:11;;;;;;;;;;;;;;;;;;5077207;28;20015;-69
2024/03/21 15:13:37;;;;;;;;;;;;;;;;;;5089917;28;19920;-69
2024/03/21 15:16:03;;;;;;;;;;;;;;;;;;5094044;28;20276;-70
2024/03/21 15:18:29;;;;;;;;;;;;;;;;;;5093088;28;20172;-70
2024/03/21 15:20:55;;;;;;;;;;;;;;;;;;5091731;28;20311;-70
2024/03/21 15:23:21;;;;;;;;;;;;;;;;;;5090366;28;19908;-69
2024/03/21 15:25:47;;;;;;;;;;;;;;;;;;5074224;28;19912;-70
2024/03/21 15:28:14;;;;;;;;;;;;;;;;;;5086404;28;19958;-70
2024/03/21 15:30:45;;;;;;;;;;;;;;;;;;5093247;28;19935;-70
2024/03/21 15:33:12;;;;;;;;;;;;;;;;;;5081642;28;19996;-70
2024/03/21 15:35:38;;;;;;;;;;;;;;;;;;5075430;28;19991;-71
2024/03/21 15:38:04;;;;;;;;;;;;;;;;;;5084506;28;19908;-71
2024/03/21 15:40:29;;;;;;;;;;;;;;;;;;5092589;28;19919;-71
2024/03/21 15:42:55;;;;;;;;;;;;;;;;;;5092944;28;19944;-69
2024/03/21 15:45:21;;;;;;;;;;;;;;;;;;5091837;28;20433;-69
2024/03/21 15:47:47;;;;;;;;;;;;;;;;;;5091751;28;19955;-69
2024/03/21 15:50:13;;;;;;;;;;;;;;;;;;5092803;28;19927;-71
2024/03/21 15:52:40;;;;;;;;;;;;;;;;;;5092009;28;19913;-71
2024/03/21 15:55:06;;;;;;;;;;;;;;;;;;5092509;28;19915;-71
2024/03/21 15:57:32;;;;;;;;;;;;;;;;;;5090950;28;19915;-71
2024/03/21 16:00:36;;;;;;;;;;;;;;;;;;5090738;27;19913;-70
2024/03/21 16:03:52;;;;;;;;;;;;;;;;;;5090929;27;19916;-72
2024/03/21 16:09:00;;;;;;;;;;;;;;;;;;5112503;27;19916;-69
2024/03/21 16:11:26;;;;;;;;;;;;;;;;;;5111349;28;20002;-70
2024/03/21 16:13:52;;;;;;;;;;;;;;;;;;5111758;28;20372;-71
2024/03/21 16:16:18;;;;;;;;;;;;;;;;;;5111595;28;20334;-70
2024/03/21 16:18:44;;;;;;;;;;;;;;;;;;5109914;28;19931;-71
2024/03/21 16:21:10;;;;;;;;;;;;;;;;;;5111538;28;20363;-71
2024/03/21 16:24:45;;;;;;;;;;;;;;;;;;5071727;28;19921;-70
2024/03/21 16:27:11;;;;;;;;;;;;;;;;;;5069428;28;20452;-70
2024/03/21 16:29:37;;;;;;;;;;;;;;;;;;5069772;28;19908;-70
2024/03/21 16:32:03;;;;;;;;;;;;;;;;;;5070993;28;19992;-70
2024/03/21 16:34:29;;;;;;;;;;;;;;;;;;5070605;28;20027;-71
2024/03/21 16:36:55;;;;;;;;;;;;;;;;;;5070984;28;19913;-71
2024/03/21 16:39:21;;;;;;;;;;;;;;;;;;5070885;28;20361;-70
2024/03/21 16:41:47;;;;;;;;;;;;;;;;;;5070536;28;19935;-70
2024/03/21 16:44:13;;;;;;;;;;;;;;;;;;5070731;28;19925;-70
2024/03/21 16:48:07;;;;;;;;;;;;;;;;;;5152711;27;20033;-71
2024/03/21 16:50:33;;;;;;;;;;;;;;;;;;5134280;27;20002;-70
2024/03/21 16:53:55;;;;;;;;;;;;;;;;;;5091674;27;19923;-71
2024/03/21 16:56:21;;;;;;;;;;;;;;;;;;5091291;28;20006;-70